sensor_id;sensor_type;location;lat;lon;timestamp;pressure;altitude;pressure_sealevel;temperature;humidity
69751;BME280;57335;52.288;6.056;2023-04-19T00:00:42;102878.59;;;7.28;98.40
69751;BME280;57335;52.288;6.056;2023-04-19T00:03:09;102879.16;;;7.32;98.35
69751;BME280;57335;52.288;6.056;2023-04-19T00:05:36;102878.88;;;7.35;98.37
69751;BME280;57335;52.288;6.056;2023-04-19T00:08:03;102868.56;;;7.33;98.86
69751;BME280;57335;52.288;6.056;2023-04-19T00:10:30;102870.63;;;7.39;97.52
69751;BME280;57335;52.288;6.056;2023-04-19T00:12:56;102873.69;;;7.45;97.50
69751;BME280;57335;52.288;6.056;2023-04-19T00:15:23;102872.31;;;7.50;97.60
69751;BME280;57335;52.288;6.056;2023-04-19T00:17:49;102866.97;;;7.52;97.43
69751;BME280;57335;52.288;6.056;2023-04-19T00:20:16;102859.00;;;7.53;96.69
69751;BME280;57335;52.288;6.056;2023-04-19T00:22:42;102868.06;;;7.59;97.10
69751;BME280;57335;52.288;6.056;2023-04-19T00:25:08;102860.81;;;7.63;96.85
69751;BME280;57335;52.288;6.056;2023-04-19T00:27:35;102867.13;;;7.60;97.88
69751;BME280;57335;52.288;6.056;2023-04-19T00:30:01;102868.50;;;7.64;97.65
69751;BME280;57335;52.288;6.056;2023-04-19T00:32:28;102859.97;;;7.62;97.86
69751;BME280;57335;52.288;6.056;2023-04-19T00:34:54;102862.72;;;7.61;98.80
69751;BME280;57335;52.288;6.056;2023-04-19T00:37:20;102860.53;;;7.56;98.50
69751;BME280;57335;52.288;6.056;2023-04-19T00:39:47;102867.22;;;7.49;99.10
69751;BME280;57335;52.288;6.056;2023-04-19T00:42:13;102867.38;;;7.47;98.76
69751;BME280;57335;52.288;6.056;2023-04-19T00:44:40;102867.66;;;7.44;98.87
69751;BME280;57335;52.288;6.056;2023-04-19T00:47:06;102860.06;;;7.41;98.93
69751;BME280;57335;52.288;6.056;2023-04-19T00:49:33;102852.13;;;7.43;99.12
69751;BME280;57335;52.288;6.056;2023-04-19T00:51:59;102851.56;;;7.39;99.06
69751;BME280;57335;52.288;6.056;2023-04-19T00:54:25;102855.56;;;7.43;99.05
69751;BME280;57335;52.288;6.056;2023-04-19T00:56:52;102845.25;;;7.42;99.33
69751;BME280;57335;52.288;6.056;2023-04-19T00:59:18;102848.41;;;7.45;98.76
69751;BME280;57335;52.288;6.056;2023-04-19T01:01:45;102849.25;;;7.46;99.87
69751;BME280;57335;52.288;6.056;2023-04-19T01:04:11;102846.50;;;7.47;100.00
69751;BME280;57335;52.288;6.056;2023-04-19T01:06:39;102840.19;;;7.50;100.00
69751;BME280;57335;52.288;6.056;2023-04-19T01:09:06;102836.91;;;7.48;100.00
69751;BME280;57335;52.288;6.056;2023-04-19T01:11:32;102835.50;;;7.44;100.00
69751;BME280;57335;52.288;6.056;2023-04-19T01:13:59;102840.88;;;7.42;100.00
69751;BME280;57335;52.288;6.056;2023-04-19T01:16:26;102836.34;;;7.44;100.00
69751;BME280;57335;52.288;6.056;2023-04-19T01:18:53;102831.81;;;7.46;100.00
69751;BME280;57335;52.288;6.056;2023-04-19T01:21:19;102830.28;;;7.44;100.00
69751;BME280;57335;52.288;6.056;2023-04-19T01:23:46;102823.69;;;7.39;100.00
69751;BME280;57335;52.288;6.056;2023-04-19T01:26:12;102823.00;;;7.37;100.00
69751;BME280;57335;52.288;6.056;2023-04-19T01:28:38;102830.13;;;7.35;100.00
69751;BME280;57335;52.288;6.056;2023-04-19T01:31:05;102828.63;;;7.33;100.00
69751;BME280;57335;52.288;6.056;2023-04-19T01:33:31;102830.81;;;7.37;100.00
69751;BME280;57335;52.288;6.056;2023-04-19T01:35:58;102837.72;;;7.38;100.00
69751;BME280;57335;52.288;6.056;2023-04-19T01:38:24;102834.44;;;7.46;100.00
69751;BME280;57335;52.288;6.056;2023-04-19T01:40:50;102828.09;;;7.49;100.00
69751;BME280;57335;52.288;6.056;2023-04-19T01:43:17;102834.28;;;7.57;100.00
69751;BME280;57335;52.288;6.056;2023-04-19T01:45:43;102830.16;;;7.65;100.00
69751;BME280;57335;52.288;6.056;2023-04-19T01:48:09;102834.16;;;7.69;100.00
69751;BME280;57335;52.288;6.056;2023-04-19T01:50:36;102837.72;;;7.77;100.00
69751;BME280;57335;52.288;6.056;2023-04-19T01:53:02;102840.63;;;7.84;100.00
69751;BME280;57335;52.288;6.056;2023-04-19T01:55:29;102835.22;;;7.86;100.00
69751;BME280;57335;52.288;6.056;2023-04-19T01:57:55;102837.03;;;7.95;100.00
69751;BME280;57335;52.288;6.056;2023-04-19T02:00:21;102845.97;;;8.02;100.00
69751;BME280;57335;52.288;6.056;2023-04-19T02:02:48;102841.25;;;8.06;100.00
69751;BME280;57335;52.288;6.056;2023-04-19T02:05:14;102843.47;;;8.10;100.00
69751;BME280;57335;52.288;6.056;2023-04-19T02:07:41;102831.66;;;8.16;100.00
69751;BME280;57335;52.288;6.056;2023-04-19T02:10:10;102834.50;;;8.23;100.00
69751;BME280;57335;52.288;6.056;2023-04-19T02:12:37;102829.66;;;8.28;99.87
69751;BME280;57335;52.288;6.056;2023-04-19T02:15:03;102830.09;;;8.33;99.19
69751;BME280;57335;52.288;6.056;2023-04-19T02:17:30;102828.16;;;8.35;99.32
69751;BME280;57335;52.288;6.056;2023-04-19T02:19:56;102825.94;;;8.40;99.03
69751;BME280;57335;52.288;6.056;2023-04-19T02:22:23;102828.28;;;8.43;98.55
69751;BME280;57335;52.288;6.056;2023-04-19T02:24:50;102831.16;;;8.50;98.21
69751;BME280;57335;52.288;6.056;2023-04-19T02:27:17;102838.72;;;8.53;97.82
69751;BME280;57335;52.288;6.056;2023-04-19T02:29:43;102837.91;;;8.52;97.63
69751;BME280;57335;52.288;6.056;2023-04-19T02:32:13;102840.88;;;8.57;97.84
69751;BME280;57335;52.288;6.056;2023-04-19T02:34:39;102839.25;;;8.56;98.11
69751;BME280;57335;52.288;6.056;2023-04-19T02:37:06;102842.56;;;8.58;97.58
69751;BME280;57335;52.288;6.056;2023-04-19T02:39:32;102835.97;;;8.54;97.20
69751;BME280;57335;52.288;6.056;2023-04-19T02:41:58;102846.41;;;8.54;97.45
69751;BME280;57335;52.288;6.056;2023-04-19T02:44:25;102844.78;;;8.44;98.02
69751;BME280;57335;52.288;6.056;2023-04-19T02:46:51;102852.66;;;8.34;97.89
69751;BME280;57335;52.288;6.056;2023-04-19T02:49:18;102850.88;;;8.25;97.92
69751;BME280;57335;52.288;6.056;2023-04-19T02:51:44;102852.38;;;8.17;98.06
69751;BME280;57335;52.288;6.056;2023-04-19T02:54:12;102850.19;;;8.13;97.59
69751;BME280;57335;52.288;6.056;2023-04-19T02:56:38;102848.41;;;8.04;98.03
69751;BME280;57335;52.288;6.056;2023-04-19T02:59:05;102849.66;;;7.99;98.04
69751;BME280;57335;52.288;6.056;2023-04-19T03:01:32;102854.63;;;7.93;98.57
69751;BME280;57335;52.288;6.056;2023-04-19T03:03:58;102850.91;;;7.86;98.46
69751;BME280;57335;52.288;6.056;2023-04-19T03:06:25;102855.72;;;7.81;98.35
69751;BME280;57335;52.288;6.056;2023-04-19T03:08:51;102848.31;;;7.76;98.78
69751;BME280;57335;52.288;6.056;2023-04-19T03:11:18;102846.78;;;7.73;98.78
69751;BME280;57335;52.288;6.056;2023-04-19T03:13:44;102851.47;;;7.70;98.62
69751;BME280;57335;52.288;6.056;2023-04-19T03:16:10;102837.44;;;7.61;98.66
69751;BME280;57335;52.288;6.056;2023-04-19T03:18:37;102837.03;;;7.56;98.95
69751;BME280;57335;52.288;6.056;2023-04-19T03:21:03;102841.16;;;7.49;99.54
69751;BME280;57335;52.288;6.056;2023-04-19T03:23:30;102844.44;;;7.41;100.00
69751;BME280;57335;52.288;6.056;2023-04-19T03:25:56;102846.75;;;7.34;100.00
69751;BME280;57335;52.288;6.056;2023-04-19T03:28:22;102847.03;;;7.31;100.00
69751;BME280;57335;52.288;6.056;2023-04-19T03:30:49;102847.88;;;7.32;100.00
69751;BME280;57335;52.288;6.056;2023-04-19T03:33:15;102844.00;;;7.26;100.00
69751;BME280;57335;52.288;6.056;2023-04-19T03:35:43;102839.34;;;7.30;100.00
69751;BME280;57335;52.288;6.056;2023-04-19T03:38:09;102833.56;;;7.26;100.00
69751;BME280;57335;52.288;6.056;2023-04-19T03:40:36;102845.78;;;7.35;100.00
69751;BME280;57335;52.288;6.056;2023-04-19T03:43:03;102836.59;;;7.31;100.00
69751;BME280;57335;52.288;6.056;2023-04-19T03:45:29;102838.53;;;7.39;100.00
69751;BME280;57335;52.288;6.056;2023-04-19T03:47:56;102831.00;;;7.46;100.00
69751;BME280;57335;52.288;6.056;2023-04-19T03:50:22;102845.41;;;7.50;100.00
69751;BME280;57335;52.288;6.056;2023-04-19T03:52:49;102830.03;;;7.47;100.00
69751;BME280;57335;52.288;6.056;2023-04-19T03:55:15;102839.34;;;7.49;100.00
69751;BME280;57335;52.288;6.056;2023-04-19T03:57:41;102836.34;;;7.44;100.00
69751;BME280;57335;52.288;6.056;2023-04-19T04:00:08;102830.84;;;7.47;98.87
69751;BME280;57335;52.288;6.056;2023-04-19T04:02:37;102832.38;;;7.50;99.33
69751;BME280;57335;52.288;6.056;2023-04-19T04:05:05;102832.63;;;7.47;99.03
69751;BME280;57335;52.288;6.056;2023-04-19T04:07:32;102825.50;;;7.49;98.48
69751;BME280;57335;52.288;6.056;2023-04-19T04:09:58;102835.25;;;7.56;97.49
69751;BME280;57335;52.288;6.056;2023-04-19T04:12:24;102834.16;;;7.59;96.96
69751;BME280;57335;52.288;6.056;2023-04-19T04:14:51;102831.81;;;7.56;96.14
69751;BME280;57335;52.288;6.056;2023-04-19T04:17:17;102831.41;;;7.61;95.75
69751;BME280;57335;52.288;6.056;2023-04-19T04:19:44;102834.28;;;7.57;95.62
69751;BME280;57335;52.288;6.056;2023-04-19T04:22:10;102843.78;;;7.58;95.47
69751;BME280;57335;52.288;6.056;2023-04-19T04:24:38;102836.34;;;7.64;94.88
69751;BME280;57335;52.288;6.056;2023-04-19T04:27:04;102835.53;;;7.63;93.26
69751;BME280;57335;52.288;6.056;2023-04-19T04:29:31;102831.13;;;7.64;93.48
69751;BME280;57335;52.288;6.056;2023-04-19T04:31:58;102840.75;;;7.63;92.30
69751;BME280;57335;52.288;6.056;2023-04-19T04:34:24;102843.78;;;7.68;91.89
69751;BME280;57335;52.288;6.056;2023-04-19T04:36:51;102837.19;;;7.64;90.93
69751;BME280;57335;52.288;6.056;2023-04-19T04:39:17;102846.38;;;7.68;91.23
69751;BME280;57335;52.288;6.056;2023-04-19T04:41:44;102847.88;;;7.71;89.68
69751;BME280;57335;52.288;6.056;2023-04-19T04:44:10;102844.34;;;7.72;89.10
69751;BME280;57335;52.288;6.056;2023-04-19T04:46:38;102849.81;;;7.69;89.22
69751;BME280;57335;52.288;6.056;2023-04-19T04:49:04;102854.78;;;7.72;88.30
69751;BME280;57335;52.288;6.056;2023-04-19T04:51:31;102848.44;;;7.74;88.38
69751;BME280;57335;52.288;6.056;2023-04-19T04:53:57;102845.16;;;7.72;87.55
69751;BME280;57335;52.288;6.056;2023-04-19T04:56:23;102849.38;;;7.73;86.40
69751;BME280;57335;52.288;6.056;2023-04-19T04:58:50;102861.63;;;7.73;85.37
69751;BME280;57335;52.288;6.056;2023-04-19T05:01:16;102854.09;;;7.70;85.17
69751;BME280;57335;52.288;6.056;2023-04-19T05:03:43;102851.31;;;7.71;86.57
69751;BME280;57335;52.288;6.056;2023-04-19T05:06:09;102856.16;;;7.76;84.20
69751;BME280;57335;52.288;6.056;2023-04-19T05:08:35;102859.16;;;7.81;81.54
69751;BME280;57335;52.288;6.056;2023-04-19T05:11:02;102836.91;;;7.87;79.08
69751;BME280;57335;52.288;6.056;2023-04-19T05:13:28;102855.56;;;8.11;79.10
69751;BME280;57335;52.288;6.056;2023-04-19T05:15:55;102865.19;;;8.11;79.13
69751;BME280;57335;52.288;6.056;2023-04-19T05:18:21;102849.75;;;8.27;77.45
69751;BME280;57335;52.288;6.056;2023-04-19T05:20:47;102846.31;;;8.36;72.70
69751;BME280;57335;52.288;6.056;2023-04-19T05:23:14;102850.84;;;8.54;71.62
69751;BME280;57335;52.288;6.056;2023-04-19T05:25:40;102848.75;;;8.85;70.38
69751;BME280;57335;52.288;6.056;2023-04-19T05:28:07;102848.22;;;9.09;68.21
69751;BME280;57335;52.288;6.056;2023-04-19T05:30:33;102856.06;;;9.55;68.68
69751;BME280;57335;52.288;6.056;2023-04-19T05:33:00;102853.97;;;9.76;66.26
69751;BME280;57335;52.288;6.056;2023-04-19T05:35:26;102854.03;;;10.29;63.26
69751;BME280;57335;52.288;6.056;2023-04-19T05:37:52;102863.41;;;10.66;62.75
69751;BME280;57335;52.288;6.056;2023-04-19T05:40:19;102863.47;;;10.74;60.10
69751;BME280;57335;52.288;6.056;2023-04-19T05:42:45;102862.44;;;11.01;58.11
69751;BME280;57335;52.288;6.056;2023-04-19T05:45:12;102877.16;;;11.45;59.03
69751;BME280;57335;52.288;6.056;2023-04-19T05:47:38;102876.19;;;11.78;55.86
69751;BME280;57335;52.288;6.056;2023-04-19T05:50:05;102873.25;;;12.06;53.54
69751;BME280;57335;52.288;6.056;2023-04-19T05:52:32;102865.97;;;12.49;51.40
69751;BME280;57335;52.288;6.056;2023-04-19T05:54:58;102860.69;;;12.89;51.65
69751;BME280;57335;52.288;6.056;2023-04-19T05:57:24;102871.19;;;13.05;47.55
69751;BME280;57335;52.288;6.056;2023-04-19T05:59:51;102872.31;;;13.03;48.29
69751;BME280;57335;52.288;6.056;2023-04-19T06:02:18;102867.97;;;13.18;46.27
69751;BME280;57335;52.288;6.056;2023-04-19T06:04:44;102870.97;;;13.15;46.13
69751;BME280;57335;52.288;6.056;2023-04-19T06:07:11;102861.75;;;13.11;46.18
69751;BME280;57335;52.288;6.056;2023-04-19T06:09:55;102870.22;;;12.98;46.34
69751;BME280;57335;52.288;6.056;2023-04-19T06:12:22;102873.94;;;13.12;46.25
69751;BME280;57335;52.288;6.056;2023-04-19T06:14:48;102875.25;;;13.08;45.65
69751;BME280;57335;52.288;6.056;2023-04-19T06:17:15;102881.09;;;12.95;46.54
69751;BME280;57335;52.288;6.056;2023-04-19T06:19:41;102885.09;;;13.14;46.21
69751;BME280;57335;52.288;6.056;2023-04-19T06:22:08;102884.78;;;13.09;46.84
69751;BME280;57335;52.288;6.056;2023-04-19T06:24:34;102881.13;;;13.18;45.28
69751;BME280;57335;52.288;6.056;2023-04-19T06:27:00;102893.44;;;12.86;47.30
69751;BME280;57335;52.288;6.056;2023-04-19T06:29:27;102884.94;;;13.15;45.79
69751;BME280;57335;52.288;6.056;2023-04-19T06:31:53;102901.50;;;13.32;45.37
69751;BME280;57335;52.288;6.056;2023-04-19T06:34:20;102894.34;;;13.10;46.71
69751;BME280;57335;52.288;6.056;2023-04-19T06:36:46;102897.53;;;13.28;46.34
69751;BME280;57335;52.288;6.056;2023-04-19T06:39:13;102899.44;;;13.43;46.32
69751;BME280;57335;52.288;6.056;2023-04-19T06:41:40;102895.56;;;13.30;45.86
69751;BME280;57335;52.288;6.056;2023-04-19T06:44:06;102902.50;;;13.31;45.71
69751;BME280;57335;52.288;6.056;2023-04-19T06:46:33;102889.81;;;13.58;46.15
69751;BME280;57335;52.288;6.056;2023-04-19T06:48:59;102899.59;;;13.95;43.05
69751;BME280;57335;52.288;6.056;2023-04-19T06:51:25;102894.22;;;14.04;44.11
69751;BME280;57335;52.288;6.056;2023-04-19T06:53:52;102905.16;;;14.15;42.92
69751;BME280;57335;52.288;6.056;2023-04-19T06:56:38;102900.63;;;14.39;43.47
69751;BME280;57335;52.288;6.056;2023-04-19T06:59:05;102883.66;;;14.42;42.27
69751;BME280;57335;52.288;6.056;2023-04-19T07:01:31;102904.28;;;14.53;42.99
69751;BME280;57335;52.288;6.056;2023-04-19T07:03:57;102892.31;;;14.65;43.41
69751;BME280;57335;52.288;6.056;2023-04-19T07:06:24;102897.22;;;14.98;40.87
69751;BME280;57335;52.288;6.056;2023-04-19T07:08:51;102900.69;;;14.84;42.51
69751;BME280;57335;52.288;6.056;2023-04-19T07:11:17;102899.66;;;15.00;41.66
69751;BME280;57335;52.288;6.056;2023-04-19T07:13:46;102903.91;;;15.15;40.28
69751;BME280;57335;52.288;6.056;2023-04-19T07:16:12;102898.94;;;14.91;41.31
69751;BME280;57335;52.288;6.056;2023-04-19T07:18:39;102898.94;;;14.91;40.85
69751;BME280;57335;52.288;6.056;2023-04-19T07:21:05;102900.53;;;15.07;40.81
69751;BME280;57335;52.288;6.056;2023-04-19T07:23:31;102901.03;;;15.32;40.61
69751;BME280;57335;52.288;6.056;2023-04-19T07:25:58;102889.75;;;15.23;39.67
69751;BME280;57335;52.288;6.056;2023-04-19T07:28:24;102897.34;;;15.48;40.04
69751;BME280;57335;52.288;6.056;2023-04-19T07:30:53;102890.56;;;15.60;38.65
69751;BME280;57335;52.288;6.056;2023-04-19T07:33:22;102885.22;;;15.75;39.31
69751;BME280;57335;52.288;6.056;2023-04-19T07:35:53;102918.97;;;15.73;37.59
69751;BME280;57335;52.288;6.056;2023-04-19T07:38:19;102899.47;;;15.74;38.09
69751;BME280;57335;52.288;6.056;2023-04-19T07:40:46;102893.19;;;15.60;39.01
69751;BME280;57335;52.288;6.056;2023-04-19T07:43:12;102899.16;;;15.69;40.12
69751;BME280;57335;52.288;6.056;2023-04-19T07:45:38;102902.41;;;15.86;38.28
69751;BME280;57335;52.288;6.056;2023-04-19T07:48:05;102904.78;;;15.38;39.23
69751;BME280;57335;52.288;6.056;2023-04-19T07:50:31;102897.66;;;15.60;38.95
69751;BME280;57335;52.288;6.056;2023-04-19T07:52:58;102893.56;;;16.00;38.51
69751;BME280;57335;52.288;6.056;2023-04-19T07:55:24;102893.06;;;15.47;38.55
69751;BME280;57335;52.288;6.056;2023-04-19T07:57:50;102894.03;;;15.82;38.29
69751;BME280;57335;52.288;6.056;2023-04-19T08:00:18;102888.81;;;16.17;37.71
69751;BME280;57335;52.288;6.056;2023-04-19T08:02:45;102901.38;;;16.08;37.30
69751;BME280;57335;52.288;6.056;2023-04-19T08:05:14;102897.47;;;16.32;37.79
69751;BME280;57335;52.288;6.056;2023-04-19T08:07:40;102891.84;;;16.49;37.67
69751;BME280;57335;52.288;6.056;2023-04-19T08:10:08;102898.66;;;16.65;38.10
69751;BME280;57335;52.288;6.056;2023-04-19T08:12:35;102902.09;;;16.59;37.26
69751;BME280;57335;52.288;6.056;2023-04-19T08:15:08;102897.16;;;16.49;36.85
69751;BME280;57335;52.288;6.056;2023-04-19T08:17:54;102895.34;;;16.21;35.55
69751;BME280;57335;52.288;6.056;2023-04-19T08:20:21;102899.97;;;16.12;36.52
69751;BME280;57335;52.288;6.056;2023-04-19T08:22:47;102892.59;;;15.80;36.71
69751;BME280;57335;52.288;6.056;2023-04-19T08:25:14;102888.16;;;15.65;38.69
69751;BME280;57335;52.288;6.056;2023-04-19T08:27:40;102891.13;;;15.55;39.00
69751;BME280;57335;52.288;6.056;2023-04-19T08:30:07;102891.72;;;15.72;38.35
69751;BME280;57335;52.288;6.056;2023-04-19T08:32:33;102881.19;;;15.79;38.81
69751;BME280;57335;52.288;6.056;2023-04-19T08:35:00;102881.34;;;15.99;39.50
69751;BME280;57335;52.288;6.056;2023-04-19T08:37:26;102896.28;;;16.13;37.60
69751;BME280;57335;52.288;6.056;2023-04-19T08:39:53;102879.00;;;16.11;37.42
69751;BME280;57335;52.288;6.056;2023-04-19T08:42:19;102882.75;;;15.95;37.30
69751;BME280;57335;52.288;6.056;2023-04-19T08:45:03;102881.44;;;15.84;36.40
69751;BME280;57335;52.288;6.056;2023-04-19T08:47:50;102868.47;;;15.46;38.23
69751;BME280;57335;52.288;6.056;2023-04-19T08:50:27;102869.09;;;15.48;40.74
69751;BME280;57335;52.288;6.056;2023-04-19T08:53:04;102861.09;;;15.63;40.23
69751;BME280;57335;52.288;6.056;2023-04-19T08:55:50;102863.94;;;15.83;37.27
69751;BME280;57335;52.288;6.056;2023-04-19T08:58:19;102864.75;;;15.62;39.31
69751;BME280;57335;52.288;6.056;2023-04-19T09:01:06;102866.91;;;15.52;38.56
69751;BME280;57335;52.288;6.056;2023-04-19T09:03:35;102880.16;;;15.37;39.29
69751;BME280;57335;52.288;6.056;2023-04-19T09:06:26;102863.69;;;15.56;36.82
69751;BME280;57335;52.288;6.056;2023-04-19T09:12:01;102880.59;;;15.41;38.08
69751;BME280;57335;52.288;6.056;2023-04-19T09:14:27;102855.38;;;15.38;37.73
69751;BME280;57335;52.288;6.056;2023-04-19T09:17:13;102854.00;;;15.42;37.52
69751;BME280;57335;52.288;6.056;2023-04-19T09:19:49;102856.63;;;15.21;37.09
69751;BME280;57335;52.288;6.056;2023-04-19T09:22:15;102851.28;;;15.14;39.95
69751;BME280;57335;52.288;6.056;2023-04-19T09:24:42;102856.25;;;14.87;39.25
69751;BME280;57335;52.288;6.056;2023-04-19T09:27:12;102854.84;;;15.06;37.33
69751;BME280;57335;52.288;6.056;2023-04-19T09:29:40;102859.34;;;14.91;38.90
69751;BME280;57335;52.288;6.056;2023-04-19T09:32:06;102856.97;;;14.81;40.70
69751;BME280;57335;52.288;6.056;2023-04-19T09:34:33;102853.41;;;15.04;38.87
69751;BME280;57335;52.288;6.056;2023-04-19T09:37:12;102855.94;;;15.12;37.38
69751;BME280;57335;52.288;6.056;2023-04-19T09:39:58;102855.88;;;14.90;36.29
69751;BME280;57335;52.288;6.056;2023-04-19T09:42:43;102842.69;;;14.90;37.56
69751;BME280;57335;52.288;6.056;2023-04-19T09:45:43;102838.81;;;14.71;37.32
69751;BME280;57335;52.288;6.056;2023-04-19T09:48:11;102828.16;;;14.50;38.30
69751;BME280;57335;52.288;6.056;2023-04-19T09:50:57;102827.44;;;14.56;38.21
69751;BME280;57335;52.288;6.056;2023-04-19T09:53:31;102836.31;;;14.55;38.37
69751;BME280;57335;52.288;6.056;2023-04-19T09:55:58;102825.78;;;14.55;39.14
69751;BME280;57335;52.288;6.056;2023-04-19T09:58:28;102817.59;;;14.50;37.31
69751;BME280;57335;52.288;6.056;2023-04-19T10:01:09;102823.78;;;14.42;36.21
69751;BME280;57335;52.288;6.056;2023-04-19T10:03:43;102816.25;;;14.24;35.50
69751;BME280;57335;52.288;6.056;2023-04-19T10:06:15;102815.13;;;14.04;37.84
69751;BME280;57335;52.288;6.056;2023-04-19T10:09:03;102819.53;;;14.11;37.11
69751;BME280;57335;52.288;6.056;2023-04-19T10:11:34;102835.69;;;14.08;37.69
69751;BME280;57335;52.288;6.056;2023-04-19T10:14:11;102813.13;;;14.06;38.96
69751;BME280;57335;52.288;6.056;2023-04-19T10:16:39;102818.50;;;14.12;38.21
69751;BME280;57335;52.288;6.056;2023-04-19T10:19:14;102818.88;;;14.24;36.27
69751;BME280;57335;52.288;6.056;2023-04-19T10:21:42;102805.16;;;14.14;36.30
69751;BME280;57335;52.288;6.056;2023-04-19T10:24:11;102806.13;;;13.98;38.74
69751;BME280;57335;52.288;6.056;2023-04-19T10:27:12;102809.88;;;14.04;39.18
69751;BME280;57335;52.288;6.056;2023-04-19T10:29:58;102812.75;;;14.09;35.20
69751;BME280;57335;52.288;6.056;2023-04-19T10:32:27;102807.88;;;14.06;36.61
69751;BME280;57335;52.288;6.056;2023-04-19T10:34:54;102798.47;;;13.88;36.75
69751;BME280;57335;52.288;6.056;2023-04-19T10:37:23;102794.41;;;13.86;36.58
69751;BME280;57335;52.288;6.056;2023-04-19T10:39:50;102791.75;;;13.86;37.49
69751;BME280;57335;52.288;6.056;2023-04-19T10:42:17;102787.75;;;13.90;38.00
69751;BME280;57335;52.288;6.056;2023-04-19T10:47:52;102781.69;;;14.04;35.40
69751;BME280;57335;52.288;6.056;2023-04-19T10:50:19;102786.94;;;14.04;35.07
69751;BME280;57335;52.288;6.056;2023-04-19T10:52:48;102780.13;;;14.10;36.65
69751;BME280;57335;52.288;6.056;2023-04-19T10:55:17;102775.41;;;14.20;35.34
69751;BME280;57335;52.288;6.056;2023-04-19T10:58:03;102761.38;;;14.34;33.78
69751;BME280;57335;52.288;6.056;2023-04-19T11:00:31;102767.00;;;14.46;33.39
69751;BME280;57335;52.288;6.056;2023-04-19T11:02:58;102760.00;;;14.53;34.19
69751;BME280;57335;52.288;6.056;2023-04-19T11:05:26;102760.81;;;14.54;36.40
69751;BME280;57335;52.288;6.056;2023-04-19T11:07:52;102751.47;;;14.51;36.74
69751;BME280;57335;52.288;6.056;2023-04-19T11:10:29;102743.16;;;14.54;36.21
69751;BME280;57335;52.288;6.056;2023-04-19T11:12:56;102752.53;;;14.72;35.51
69751;BME280;57335;52.288;6.056;2023-04-19T11:15:23;102738.06;;;14.68;35.25
69751;BME280;57335;52.288;6.056;2023-04-19T11:17:50;102739.91;;;14.67;36.34
69751;BME280;57335;52.288;6.056;2023-04-19T11:20:30;102737.81;;;14.63;35.63
69751;BME280;57335;52.288;6.056;2023-04-19T11:22:56;102745.44;;;14.72;34.61
69751;BME280;57335;52.288;6.056;2023-04-19T11:25:22;102740.59;;;14.76;35.02
69751;BME280;57335;52.288;6.056;2023-04-19T11:27:52;102732.03;;;14.74;35.07
69751;BME280;57335;52.288;6.056;2023-04-19T11:30:21;102726.25;;;14.85;34.95
69751;BME280;57335;52.288;6.056;2023-04-19T11:32:53;102713.69;;;14.87;36.07
69751;BME280;57335;52.288;6.056;2023-04-19T11:35:21;102716.22;;;14.95;35.95
69751;BME280;57335;52.288;6.056;2023-04-19T11:37:49;102717.97;;;15.10;35.75
69751;BME280;57335;52.288;6.056;2023-04-19T11:40:17;102713.75;;;15.15;34.96
69751;BME280;57335;52.288;6.056;2023-04-19T11:42:45;102725.75;;;15.18;35.62
69751;BME280;57335;52.288;6.056;2023-04-19T11:45:12;102707.41;;;14.67;35.72
69751;BME280;57335;52.288;6.056;2023-04-19T11:47:57;102705.69;;;14.59;39.07
69751;BME280;57335;52.288;6.056;2023-04-19T11:52:56;102714.22;;;14.98;36.56
69751;BME280;57335;52.288;6.056;2023-04-19T11:55:23;102710.56;;;14.99;38.45
69751;BME280;57335;52.288;6.056;2023-04-19T11:57:49;102705.09;;;14.79;38.17
69751;BME280;57335;52.288;6.056;2023-04-19T12:00:26;102689.25;;;14.79;35.70
69751;BME280;57335;52.288;6.056;2023-04-19T12:02:53;102699.13;;;14.70;39.74
69751;BME280;57335;52.288;6.056;2023-04-19T12:05:20;102708.41;;;14.87;36.02
69751;BME280;57335;52.288;6.056;2023-04-19T12:07:58;102684.53;;;14.95;36.39
69751;BME280;57335;52.288;6.056;2023-04-19T12:10:25;102690.47;;;14.61;39.38
69751;BME280;57335;52.288;6.056;2023-04-19T12:12:51;102682.56;;;14.61;39.63
69751;BME280;57335;52.288;6.056;2023-04-19T12:15:18;102672.97;;;14.75;38.89
69751;BME280;57335;52.288;6.056;2023-04-19T12:17:58;102677.03;;;14.99;38.49
69751;BME280;57335;52.288;6.056;2023-04-19T12:20:32;102665.16;;;15.10;41.15
69751;BME280;57335;52.288;6.056;2023-04-19T12:22:59;102661.84;;;14.80;39.59
69751;BME280;57335;52.288;6.056;2023-04-19T12:25:32;102660.41;;;14.77;37.93
69751;BME280;57335;52.288;6.056;2023-04-19T12:28:02;102659.91;;;14.67;39.26
69751;BME280;57335;52.288;6.056;2023-04-19T12:30:29;102657.59;;;15.07;36.72
69751;BME280;57335;52.288;6.056;2023-04-19T12:32:55;102652.09;;;15.30;36.20
69751;BME280;57335;52.288;6.056;2023-04-19T12:35:24;102652.59;;;15.12;37.33
69751;BME280;57335;52.288;6.056;2023-04-19T12:37:52;102641.78;;;14.85;36.33
69751;BME280;57335;52.288;6.056;2023-04-19T12:40:19;102632.25;;;14.84;38.35
69751;BME280;57335;52.288;6.056;2023-04-19T12:42:45;102649.63;;;15.00;37.56
69751;BME280;57335;52.288;6.056;2023-04-19T12:45:12;102627.00;;;15.19;38.21
69751;BME280;57335;52.288;6.056;2023-04-19T12:47:40;102628.13;;;15.03;39.38
69751;BME280;57335;52.288;6.056;2023-04-19T12:50:07;102632.44;;;15.39;35.71
69751;BME280;57335;52.288;6.056;2023-04-19T12:52:34;102623.00;;;15.58;33.99
69751;BME280;57335;52.288;6.056;2023-04-19T12:55:01;102619.31;;;15.52;35.38
69751;BME280;57335;52.288;6.056;2023-04-19T12:57:27;102607.16;;;15.58;35.51
69751;BME280;57335;52.288;6.056;2023-04-19T12:59:54;102609.84;;;15.71;37.82
69751;BME280;57335;52.288;6.056;2023-04-19T13:02:20;102604.50;;;15.58;36.67
69751;BME280;57335;52.288;6.056;2023-04-19T13:04:47;102599.31;;;15.36;38.89
69751;BME280;57335;52.288;6.056;2023-04-19T13:07:14;102602.09;;;15.28;34.47